Airfield :
LOGIN :

Register | Disclaimer

   EN    FR    IT 

 










Legend :    VFR   Marginal VFR   IFR   Intensive IFR   Very Intensive IFR
Visi :
Ceiling :
>= 8 km
>= 3000ft
5 to 8 km
1000 to 3000 ft
1500m to 5 km
500 to 1000 ft
800 to 1500m
200 to 500 ft
< 800m
< 200 ft
Symbols :   Thunderstorms  Fog  Heavy snow  Heavy precipitations  Wind > 20 kt
SIGMETs :     Misc.  Thunderstorms  Icing  Turbulence  Mountain Waves  Volcanic Ashes






- Airport Elevation : 209 ft
- IATA code : CLY


LFKC - Calvi

CURRENT METAR :
  • 200200Z AUTO 17008KT 9999 FEW038/// BKN049/// OVC068/// ///TCU 12/08 Q1013

EXPIRED METARs :
  • 200130Z AUTO 17009KT 9999 BKN047/// OVC060/// ///TCU 12/08 Q1013
  • 200100Z AUTO 17009KT 9999 FEW028 BKN042 OVC049 12/09 Q1013
  • 200030Z AUTO 17009KT 9999 FEW037 BKN049 BKN058 11/09 Q1013
  • 200000Z AUTO 17006KT 9999 BKN050 OVC068 11/10 Q1013
  • 192330Z AUTO 00000KT 9999 -RA BKN050 OVC060 11/10 Q1013

TAF TAF LFKC
Valid from the 19 at 15:00 until the 20 at 15:00 UTC


191400Z 1915/2015 21010KT 9999 FEW030 BKN055 TX15/2012Z TN10/2005Z
TEMPO 1919/2005 RA FEW035TCU
ATIS : +33 4 95 65 82 49



MET'MAP, your aeronautical weather chart ! - Copyright ORBIFLY December 2007 - Disclaimer

ORBIFLY MET'MAP TEAM :

Programming & Development : Alexandra Zaïnal
Concept & Development : Baudouin d'Aumeries
Co-Development & Prog : Marc-Olivier Méhu
Technical & hardware support : Manuel Goepfert

Contact : metmap@orbifly.com




SOURCES & CREDITS :

   NOAA